createdAt,value
2023-02-19T00:01:39.421Z,9.42
2023-02-19T00:03:41.858Z,9.40
2023-02-19T00:05:43.276Z,9.40
2023-02-19T00:07:44.634Z,9.43
2023-02-19T00:09:45.985Z,9.41
2023-02-19T00:11:48.028Z,9.41
2023-02-19T00:13:52.119Z,9.42
2023-02-19T00:15:53.554Z,9.44
2023-02-19T00:17:54.910Z,9.40
2023-02-19T00:19:56.262Z,9.41
2023-02-19T00:21:57.644Z,9.46
2023-02-19T00:24:01.752Z,9.39
2023-02-19T00:26:18.427Z,9.42
2023-02-19T00:28:20.743Z,9.39
2023-02-19T00:30:22.185Z,9.43
2023-02-19T00:32:23.608Z,9.44
2023-02-19T00:34:25.152Z,9.44
2023-02-19T00:36:28.043Z,9.42
2023-02-19T00:38:29.836Z,9.43
2023-02-19T00:40:31.374Z,9.41
2023-02-19T00:42:32.793Z,9.40
2023-02-19T00:44:34.145Z,9.40
2023-02-19T00:46:38.278Z,9.43
2023-02-19T00:48:39.802Z,9.42
2023-02-19T00:50:41.208Z,9.43
2023-02-19T00:52:42.587Z,9.39
2023-02-19T00:54:43.960Z,9.42
2023-02-19T00:56:45.338Z,9.41
2023-02-19T00:58:50.249Z,9.42
2023-02-19T01:00:51.694Z,9.45
2023-02-19T01:02:53.107Z,9.42
2023-02-19T01:04:54.544Z,9.37
2023-02-19T01:06:55.939Z,9.39
2023-02-19T01:08:57.307Z,9.39
2023-02-19T01:10:59.373Z,9.38
2023-02-19T01:13:00.725Z,9.39
2023-02-19T01:15:02.132Z,9.38
2023-02-19T01:17:04.248Z,9.42
2023-02-19T01:19:05.615Z,9.38
2023-02-19T01:21:09.075Z,9.38
2023-02-19T01:23:12.035Z,9.37
2023-02-19T01:25:13.385Z,9.37
2023-02-19T01:27:14.772Z,9.38
2023-02-19T01:29:16.173Z,9.39
2023-02-19T01:31:20.002Z,9.37
2023-02-19T01:33:21.479Z,9.37
2023-02-19T01:35:23.159Z,9.36
2023-02-19T01:37:24.627Z,9.37
2023-02-19T01:39:25.992Z,9.38
2023-02-19T01:41:27.404Z,9.39
2023-02-19T01:43:28.859Z,9.38
2023-02-19T01:45:35.406Z,9.40
2023-02-19T01:47:36.852Z,9.40
2023-02-19T01:49:48.551Z,9.38
2023-02-19T01:52:04.793Z,9.40
2023-02-19T01:54:09.810Z,9.39
2023-02-19T01:56:14.530Z,9.34
2023-02-19T01:58:16.548Z,9.39
2023-02-19T02:00:20.900Z,9.32
2023-02-19T02:02:24.989Z,9.26
2023-02-19T02:04:27.433Z,9.24
2023-02-19T02:06:36.545Z,9.26
2023-02-19T02:08:56.983Z,9.30
2023-02-19T02:10:58.678Z,9.30
2023-02-19T02:13:00.134Z,9.28
2023-02-19T02:15:01.864Z,9.31
2023-02-19T02:17:21.750Z,9.30
2023-02-19T02:22:29.305Z,9.29
2023-02-19T02:24:39.736Z,9.28
2023-02-19T02:27:06.624Z,9.29
2023-02-19T02:29:31.943Z,9.27
2023-02-19T02:31:43.434Z,9.24
2023-02-19T02:33:55.932Z,9.22
2023-02-19T02:36:03.318Z,9.25
2023-02-19T02:38:10.954Z,9.24
2023-02-19T02:40:12.715Z,9.25
2023-02-19T02:42:28.959Z,9.23
2023-02-19T02:44:37.890Z,9.26
2023-02-19T02:46:43.823Z,9.25
2023-02-19T02:48:53.817Z,9.26
2023-02-19T02:51:00.529Z,9.27
2023-02-19T02:53:27.052Z,9.21
2023-02-19T02:55:31.261Z,9.24
2023-02-19T02:57:32.749Z,9.24
2023-02-19T02:59:38.791Z,9.22
2023-02-19T03:02:03.519Z,9.22
2023-02-19T03:04:10.908Z,9.22
2023-02-19T03:06:17.079Z,9.24
2023-02-19T03:08:21.549Z,9.20
2023-02-19T03:10:35.513Z,9.19
2023-02-19T03:12:57.522Z,9.16
2023-02-19T03:15:24.527Z,9.19
2023-02-19T03:17:57.362Z,9.15
2023-02-19T03:20:03.692Z,9.15
2023-02-19T03:22:16.465Z,9.16
2023-02-19T03:24:40.421Z,9.16
2023-02-19T03:26:43.833Z,9.13
2023-02-19T03:29:06.405Z,9.16
2023-02-19T03:31:12.073Z,9.16
2023-02-19T03:33:23.706Z,9.17
2023-02-19T03:35:31.914Z,9.14
2023-02-19T03:37:41.326Z,9.14
2023-02-19T03:39:46.071Z,9.10
2023-02-19T03:42:14.428Z,9.07
2023-02-19T03:44:25.024Z,9.16
2023-02-19T03:46:41.228Z,9.12
2023-02-19T03:48:54.423Z,9.14
2023-02-19T03:51:04.629Z,9.11
2023-02-19T03:53:29.615Z,9.12
2023-02-19T03:55:54.091Z,9.07
2023-02-19T03:57:58.329Z,9.01
2023-02-19T04:00:09.955Z,9.02
2023-02-19T04:02:35.563Z,8.98
2023-02-19T04:04:44.088Z,8.94
2023-02-19T04:06:54.637Z,9.02
2023-02-19T04:09:00.119Z,8.96
2023-02-19T04:11:02.275Z,8.97
2023-02-19T04:13:10.419Z,8.98
2023-02-19T04:15:17.801Z,8.97
2023-02-19T04:17:29.155Z,9.01
2023-02-19T04:19:35.036Z,8.97
2023-02-19T04:21:38.465Z,8.94
2023-02-19T04:23:44.020Z,8.96
2023-02-19T04:25:48.707Z,8.89
2023-02-19T04:27:50.388Z,8.89
2023-02-19T04:29:51.764Z,8.88
2023-02-19T04:31:53.208Z,8.89
2023-02-19T04:33:54.562Z,8.87
2023-02-19T04:35:56.041Z,8.85
2023-02-19T04:37:57.378Z,8.84
2023-02-19T04:39:58.767Z,8.86
2023-02-19T04:42:00.183Z,8.81
2023-02-19T04:44:01.627Z,8.76
2023-02-19T04:46:03.229Z,8.80
2023-02-19T04:48:05.171Z,8.79
2023-02-19T04:50:06.712Z,8.74
2023-02-19T04:52:08.102Z,8.79
2023-02-19T04:54:09.528Z,8.81
2023-02-19T04:56:13.921Z,8.80
2023-02-19T04:58:15.255Z,8.82
2023-02-19T05:00:16.681Z,8.80
2023-02-19T05:02:18.061Z,8.80
2023-02-19T05:04:19.625Z,8.74
2023-02-19T05:06:21.106Z,8.76
2023-02-19T05:08:22.524Z,8.76
2023-02-19T05:10:23.899Z,8.74
2023-02-19T05:12:26.071Z,8.78
2023-02-19T05:14:27.448Z,8.79
2023-02-19T05:16:28.904Z,8.72
2023-02-19T05:18:30.916Z,8.74
2023-02-19T05:20:32.798Z,8.74
2023-02-19T05:22:34.263Z,8.70
2023-02-19T05:24:36.120Z,8.71
2023-02-19T05:26:37.542Z,8.70
2023-02-19T05:28:39.047Z,8.71
2023-02-19T05:30:40.484Z,8.69
2023-02-19T05:32:41.884Z,8.66
2023-02-19T05:34:43.278Z,8.67
2023-02-19T05:36:45.130Z,8.65
2023-02-19T05:38:46.934Z,8.70
2023-02-19T05:40:48.595Z,8.66
2023-02-19T05:42:49.952Z,8.62
2023-02-19T05:44:51.370Z,8.63
2023-02-19T05:46:52.744Z,8.62
2023-02-19T05:48:54.270Z,8.62
2023-02-19T05:51:01.600Z,8.57
2023-02-19T05:53:05.155Z,8.56
2023-02-19T05:55:06.730Z,8.58
2023-02-19T05:57:08.131Z,8.60
2023-02-19T05:59:24.403Z,8.55
2023-02-19T06:01:28.571Z,8.58
2023-02-19T06:03:29.945Z,8.59
2023-02-19T06:05:31.327Z,8.54
2023-02-19T06:07:33.324Z,8.55
2023-02-19T06:09:34.701Z,8.55
2023-02-19T06:11:36.848Z,8.56
2023-02-19T06:13:38.257Z,8.57
2023-02-19T06:15:39.869Z,8.55
2023-02-19T06:17:41.241Z,8.57
2023-02-19T06:19:42.849Z,8.52
2023-02-19T06:21:44.269Z,8.52
2023-02-19T06:23:46.310Z,8.55
2023-02-19T06:25:47.704Z,8.53
2023-02-19T06:27:49.117Z,8.52
2023-02-19T06:29:50.607Z,8.54
2023-02-19T06:31:52.112Z,8.51
2023-02-19T06:33:54.990Z,8.53
2023-02-19T06:36:02.133Z,8.51
2023-02-19T06:38:03.509Z,8.51
2023-02-19T06:40:05.249Z,8.51
2023-02-19T06:42:06.695Z,8.50
2023-02-19T06:44:08.150Z,8.43
2023-02-19T06:46:11.526Z,8.47
2023-02-19T06:48:13.104Z,8.50
2023-02-19T06:50:14.538Z,8.47
2023-02-19T06:52:15.916Z,8.50
2023-02-19T06:54:17.318Z,8.51
2023-02-19T06:56:23.345Z,8.49
2023-02-19T06:58:25.261Z,8.49
2023-02-19T07:00:26.867Z,8.44
2023-02-19T07:02:28.230Z,8.46
2023-02-19T07:04:32.566Z,8.47
2023-02-19T07:06:35.243Z,8.46
2023-02-19T07:08:36.984Z,8.44
2023-02-19T07:10:38.462Z,8.46
2023-02-19T07:12:39.852Z,8.49
2023-02-19T07:14:41.224Z,8.47
2023-02-19T07:16:43.526Z,8.50
2023-02-19T07:18:44.941Z,8.49
2023-02-19T07:20:46.315Z,8.54
2023-02-19T07:22:48.070Z,8.50
2023-02-19T07:24:49.510Z,8.51
2023-02-19T07:26:50.938Z,8.50
2023-02-19T07:28:52.752Z,8.54
2023-02-19T07:31:00.467Z,8.50
2023-02-19T07:33:01.911Z,8.53
2023-02-19T07:35:03.392Z,8.50
2023-02-19T07:37:04.788Z,8.51
2023-02-19T07:39:07.171Z,8.47
2023-02-19T07:41:10.146Z,8.50
2023-02-19T07:43:11.715Z,8.53
2023-02-19T07:45:13.085Z,8.55
2023-02-19T07:47:14.456Z,8.50
2023-02-19T07:49:15.850Z,8.48
2023-02-19T07:51:19.884Z,8.47
2023-02-19T07:53:21.837Z,8.55
2023-02-19T07:55:23.176Z,8.47
2023-02-19T07:57:24.629Z,8.49
2023-02-19T07:59:26.001Z,8.50
2023-02-19T08:01:45.675Z,8.51
2023-02-19T08:03:48.863Z,8.49
2023-02-19T08:05:53.710Z,8.49
2023-02-19T08:07:55.135Z,8.49
2023-02-19T08:10:16.488Z,8.49
2023-02-19T08:12:36.289Z,8.44
2023-02-19T08:14:37.653Z,8.48
2023-02-19T08:16:43.226Z,8.44
2023-02-19T08:18:45.156Z,8.43
2023-02-19T08:20:46.735Z,8.49
2023-02-19T08:22:48.114Z,8.46
2023-02-19T08:24:49.488Z,8.47
2023-02-19T08:26:50.885Z,8.49
2023-02-19T08:28:52.298Z,8.43
2023-02-19T08:30:53.785Z,8.50
2023-02-19T08:32:55.553Z,8.49
2023-02-19T08:34:56.927Z,8.50
2023-02-19T08:36:58.352Z,8.50
2023-02-19T08:38:59.765Z,8.57
2023-02-19T08:41:07.431Z,8.67
2023-02-19T08:43:15.589Z,8.64
2023-02-19T08:45:17.170Z,8.66
2023-02-19T08:47:18.589Z,8.71
2023-02-19T08:49:19.943Z,8.73
2023-02-19T08:51:21.375Z,8.72
2023-02-19T08:53:23.479Z,8.99
2023-02-19T08:55:24.865Z,8.93
2023-02-19T08:57:26.612Z,8.95
2023-02-19T08:59:31.576Z,8.89
2023-02-19T09:01:33.089Z,8.93
2023-02-19T09:03:34.471Z,8.94
2023-02-19T09:05:35.915Z,8.95
2023-02-19T09:07:37.359Z,9.08
2023-02-19T09:09:39.044Z,9.15
2023-02-19T09:11:40.598Z,8.96
2023-02-19T09:13:42.637Z,9.10
2023-02-19T09:15:44.007Z,9.23
2023-02-19T09:17:45.393Z,9.39
2023-02-19T09:19:46.779Z,9.43
2023-02-19T09:21:48.149Z,9.37
2023-02-19T09:23:49.648Z,9.39
2023-02-19T09:25:57.455Z,9.22
2023-02-19T09:27:58.808Z,9.20
2023-02-19T09:30:00.300Z,9.11
2023-02-19T09:32:02.210Z,9.13
2023-02-19T09:34:05.487Z,9.15
2023-02-19T09:36:07.174Z,9.20
2023-02-19T09:38:10.703Z,9.10
2023-02-19T09:40:12.502Z,9.07
2023-02-19T09:42:18.582Z,9.03
2023-02-19T09:44:30.974Z,8.91
2023-02-19T09:46:38.427Z,9.04
2023-02-19T09:48:39.875Z,8.92
2023-02-19T09:50:45.536Z,9.02
2023-02-19T09:53:02.519Z,9.07
2023-02-19T09:55:14.608Z,9.19
2023-02-19T09:57:19.047Z,9.06
2023-02-19T09:59:27.264Z,9.17
2023-02-19T10:01:33.601Z,9.05
2023-02-19T10:03:40.680Z,9.16
2023-02-19T10:05:42.671Z,9.05
2023-02-19T10:07:47.379Z,9.14
2023-02-19T10:09:55.808Z,9.23
2023-02-19T10:11:59.009Z,9.04
2023-02-19T10:14:09.215Z,9.18
2023-02-19T10:16:17.605Z,9.22
2023-02-19T10:18:23.170Z,9.19
2023-02-19T10:20:27.748Z,9.26
2023-02-19T10:22:30.830Z,9.09
2023-02-19T10:24:32.336Z,9.08
2023-02-19T10:26:36.603Z,9.15
2023-02-19T10:28:38.404Z,9.19
2023-02-19T10:30:40.563Z,9.08
2023-02-19T10:32:59.567Z,9.07
2023-02-19T10:35:09.972Z,8.89
2023-02-19T10:37:15.897Z,9.05
2023-02-19T10:39:23.373Z,8.98
2023-02-19T10:41:26.749Z,9.08
2023-02-19T10:43:33.744Z,9.21
2023-02-19T10:45:39.571Z,9.37
2023-02-19T10:47:45.879Z,9.58
2023-02-19T10:49:52.024Z,9.51
2023-02-19T10:51:56.529Z,9.51
2023-02-19T10:54:26.650Z,9.31
2023-02-19T10:56:31.234Z,9.19
2023-02-19T10:58:34.454Z,9.33
2023-02-19T11:00:35.972Z,9.38
2023-02-19T11:02:37.426Z,9.46
2023-02-19T11:04:38.846Z,9.38
2023-02-19T11:06:40.447Z,9.36
2023-02-19T11:08:44.819Z,9.25
2023-02-19T11:10:48.797Z,9.28
2023-02-19T11:12:53.244Z,9.33
2023-02-19T11:14:55.133Z,9.26
2023-02-19T11:16:58.387Z,9.22
2023-02-19T11:18:59.868Z,9.18
2023-02-19T11:21:04.061Z,9.14
2023-02-19T11:23:24.450Z,9.24
2023-02-19T11:25:26.746Z,9.13
2023-02-19T11:27:28.344Z,9.18
2023-02-19T11:29:34.651Z,9.27
2023-02-19T11:31:36.297Z,9.59
2023-02-19T11:33:44.643Z,9.96
2023-02-19T11:35:48.131Z,9.57
2023-02-19T11:38:00.816Z,9.37
2023-02-19T11:40:02.244Z,9.54
2023-02-19T11:42:18.918Z,9.66
2023-02-19T11:44:30.196Z,9.66
2023-02-19T11:46:53.578Z,9.54
2023-02-19T11:49:13.457Z,9.49
2023-02-19T11:51:14.798Z,9.47
2023-02-19T11:53:37.156Z,9.53
2023-02-19T11:55:41.660Z,9.60
2023-02-19T11:58:21.766Z,9.52
2023-02-19T12:00:28.929Z,9.53
2023-02-19T12:02:54.038Z,9.31
2023-02-19T12:05:29.771Z,9.32
2023-02-19T12:07:49.170Z,9.07
2023-02-19T12:10:09.232Z,8.92
2023-02-19T12:12:54.208Z,8.86
2023-02-19T12:15:23.245Z,8.74
2023-02-19T12:17:45.868Z,8.73
2023-02-19T12:20:07.322Z,8.60
2023-02-19T12:22:29.970Z,8.61
2023-02-19T12:25:13.158Z,8.68
2023-02-19T12:27:39.687Z,8.63
2023-02-19T12:30:19.167Z,8.63
2023-02-19T12:32:42.422Z,8.50
2023-02-19T12:35:03.142Z,8.63
2023-02-19T12:37:10.326Z,8.58
2023-02-19T12:39:24.760Z,8.56
2023-02-19T12:41:59.538Z,8.52
2023-02-19T12:44:32.399Z,8.34
2023-02-19T12:46:42.130Z,8.37
2023-02-19T12:48:55.598Z,8.51
2023-02-19T12:51:02.537Z,8.49
2023-02-19T12:53:12.761Z,8.43
2023-02-19T12:55:28.656Z,8.35
2023-02-19T12:57:35.164Z,8.37
2023-02-19T12:59:49.994Z,8.30
2023-02-19T13:02:23.744Z,8.36
2023-02-19T13:04:39.677Z,8.40
2023-02-19T13:06:45.874Z,8.50
2023-02-19T13:09:06.693Z,8.37
2023-02-19T13:11:19.224Z,8.08
2023-02-19T13:13:25.422Z,8.20
2023-02-19T13:15:35.872Z,8.30
2023-02-19T13:17:53.745Z,8.31
2023-02-19T13:20:13.556Z,8.35
2023-02-19T13:22:42.963Z,8.34
2023-02-19T13:24:46.501Z,8.32
2023-02-19T13:26:57.093Z,8.27
2023-02-19T13:29:13.123Z,8.20
2023-02-19T13:31:31.950Z,8.26
2023-02-19T13:34:02.671Z,8.17
2023-02-19T13:36:29.737Z,8.25
2023-02-19T13:38:31.859Z,8.35
2023-02-19T13:40:40.388Z,8.31
2023-02-19T13:42:41.969Z,8.34
2023-02-19T13:44:48.275Z,8.32
2023-02-19T13:46:50.679Z,8.31
2023-02-19T13:49:31.524Z,8.30
2023-02-19T13:51:35.706Z,8.28
2023-02-19T13:53:44.573Z,8.25
2023-02-19T13:55:51.744Z,8.27
2023-02-19T13:57:53.105Z,8.23
2023-02-19T13:59:58.334Z,8.20
2023-02-19T14:02:12.800Z,8.13
2023-02-19T14:04:23.995Z,7.98
2023-02-19T14:06:25.982Z,8.00
2023-02-19T14:08:49.959Z,8.10
2023-02-19T14:11:02.440Z,8.08
2023-02-19T14:13:08.403Z,8.06
2023-02-19T14:15:24.976Z,8.06
2023-02-19T14:17:33.164Z,8.07
2023-02-19T14:19:50.772Z,7.99
2023-02-19T14:21:52.166Z,8.09
2023-02-19T14:23:57.239Z,8.11
2023-02-19T14:26:01.118Z,8.03
2023-02-19T14:31:07.999Z,8.00
2023-02-19T14:33:11.363Z,7.96
2023-02-19T14:35:30.673Z,8.02
2023-02-19T14:37:32.602Z,8.03
2023-02-19T14:39:40.329Z,8.02
2023-02-19T14:41:45.824Z,7.98
2023-02-19T14:43:51.030Z,7.93
2023-02-19T14:46:00.256Z,8.00
2023-02-19T14:50:30.582Z,8.02
2023-02-19T14:52:44.350Z,8.04
2023-02-19T14:54:54.561Z,8.01
2023-02-19T14:56:58.094Z,8.02
2023-02-19T14:59:23.015Z,8.06
2023-02-19T15:01:28.374Z,8.02
2023-02-19T15:03:35.614Z,8.06
2023-02-19T15:05:37.525Z,8.05
2023-02-19T15:07:41.476Z,8.08
2023-02-19T15:09:46.767Z,8.04
2023-02-19T15:11:48.733Z,8.07
2023-02-19T15:14:02.151Z,8.06
2023-02-19T15:16:03.932Z,8.10
2023-02-19T15:18:06.925Z,8.03
2023-02-19T15:20:28.763Z,7.99
2023-02-19T15:22:33.480Z,8.06
2023-02-19T15:24:34.960Z,8.08
2023-02-19T15:26:40.535Z,8.07
2023-02-19T15:28:41.938Z,8.10
2023-02-19T15:30:43.373Z,8.08
2023-02-19T15:32:55.726Z,8.06
2023-02-19T15:35:00.330Z,8.04
2023-02-19T15:37:08.468Z,8.05
2023-02-19T15:39:21.358Z,8.04
2023-02-19T15:41:26.241Z,8.04
2023-02-19T15:43:52.006Z,8.05
2023-02-19T15:45:58.862Z,8.06
2023-02-19T15:48:09.947Z,8.05
2023-02-19T15:50:31.457Z,8.06
2023-02-19T15:52:36.085Z,8.07
2023-02-19T15:54:51.938Z,8.06
2023-02-19T15:56:55.625Z,8.00
2023-02-19T15:59:03.447Z,7.99
2023-02-19T16:01:10.962Z,7.99
2023-02-19T16:03:18.794Z,7.88
2023-02-19T16:05:26.611Z,7.97
2023-02-19T16:07:31.946Z,7.99
2023-02-19T16:09:38.850Z,7.95
2023-02-19T16:11:55.256Z,8.01
2023-02-19T16:14:16.368Z,8.00
2023-02-19T16:16:34.837Z,7.98
2023-02-19T16:18:36.571Z,7.98
2023-02-19T16:20:37.951Z,7.92
2023-02-19T16:22:42.699Z,7.95
2023-02-19T16:24:46.849Z,7.94
2023-02-19T16:26:48.259Z,7.97
2023-02-19T16:28:52.686Z,7.96
2023-02-19T16:30:59.408Z,7.96
2023-02-19T16:33:36.045Z,7.95
2023-02-19T16:35:42.446Z,7.96
2023-02-19T16:37:58.877Z,7.91
2023-02-19T16:40:09.316Z,7.93
2023-02-19T16:42:12.972Z,7.96
2023-02-19T16:44:32.397Z,7.90
2023-02-19T16:46:33.803Z,7.91
2023-02-19T16:48:35.446Z,7.89
2023-02-19T16:50:41.254Z,7.90
2023-02-19T16:52:59.029Z,7.91
2023-02-19T16:55:00.440Z,7.88
2023-02-19T16:57:01.808Z,7.91
2023-02-19T16:59:04.897Z,7.90
2023-02-19T17:01:07.144Z,7.88
2023-02-19T17:03:18.490Z,7.90
2023-02-19T17:05:21.803Z,7.93
2023-02-19T17:07:23.477Z,7.89
2023-02-19T17:09:24.864Z,7.84
2023-02-19T17:11:26.849Z,7.82
2023-02-19T17:13:29.363Z,7.76
2023-02-19T17:15:30.717Z,7.80
2023-02-19T17:17:32.358Z,7.83
2023-02-19T17:19:34.165Z,7.84
2023-02-19T17:21:35.541Z,7.83
2023-02-19T17:23:37.074Z,7.80
2023-02-19T17:25:38.504Z,7.82
2023-02-19T17:27:41.099Z,7.81
2023-02-19T17:29:42.776Z,7.82
2023-02-19T17:31:45.083Z,7.77
2023-02-19T17:33:47.011Z,7.74
2023-02-19T17:35:48.461Z,7.64
2023-02-19T17:37:51.850Z,7.64
2023-02-19T17:39:54.377Z,7.56
2023-02-19T17:41:55.790Z,7.59
2023-02-19T17:43:57.207Z,7.62
2023-02-19T17:45:58.596Z,7.58
2023-02-19T17:48:00.344Z,7.57
2023-02-19T17:50:01.875Z,7.57
2023-02-19T17:52:04.533Z,7.56
2023-02-19T17:54:08.298Z,7.51
2023-02-19T17:56:16.841Z,7.60
2023-02-19T17:58:18.248Z,7.56
2023-02-19T18:00:25.344Z,7.53
2023-02-19T18:02:27.907Z,7.53
2023-02-19T18:04:29.302Z,7.51
2023-02-19T18:06:30.755Z,7.50
2023-02-19T18:08:32.215Z,7.48
2023-02-19T18:10:33.656Z,7.46
2023-02-19T18:12:35.209Z,7.50
2023-02-19T18:14:36.605Z,7.47
2023-02-19T18:16:37.987Z,7.47
2023-02-19T18:18:40.334Z,7.43
2023-02-19T18:20:41.711Z,7.47
2023-02-19T18:22:43.536Z,7.43
2023-02-19T18:24:47.662Z,7.38
2023-02-19T18:26:49.196Z,7.33
2023-02-19T18:28:50.603Z,7.34
2023-02-19T18:30:52.250Z,7.34
2023-02-19T18:32:54.908Z,7.27
2023-02-19T18:34:57.984Z,7.35
2023-02-19T18:36:59.397Z,7.34
2023-02-19T18:39:00.798Z,7.34
2023-02-19T18:41:02.510Z,7.31
2023-02-19T18:43:04.868Z,7.27
2023-02-19T18:45:06.792Z,7.25
2023-02-19T18:47:09.453Z,7.27
2023-02-19T18:49:10.839Z,7.26
2023-02-19T18:51:13.517Z,7.18
2023-02-19T18:53:15.112Z,7.20
2023-02-19T18:55:16.531Z,7.23
2023-02-19T18:57:20.333Z,7.19
2023-02-19T18:59:22.615Z,7.14
2023-02-19T19:01:24.041Z,7.19
2023-02-19T19:03:25.459Z,7.13
2023-02-19T19:05:27.351Z,7.14
2023-02-19T19:07:28.730Z,7.15
2023-02-19T19:09:30.090Z,7.15
2023-02-19T19:11:31.748Z,7.12
2023-02-19T19:13:33.182Z,7.04
2023-02-19T19:15:35.193Z,7.00
2023-02-19T19:17:36.791Z,6.99
2023-02-19T19:19:38.227Z,6.93
2023-02-19T19:21:39.644Z,6.84
2023-02-19T19:23:41.004Z,6.83
2023-02-19T19:25:42.409Z,6.73
2023-02-19T19:27:43.831Z,6.57
2023-02-19T19:29:47.146Z,6.49
2023-02-19T19:31:49.218Z,6.58
2023-02-19T19:33:50.941Z,6.63
2023-02-19T19:35:52.354Z,6.63
2023-02-19T19:37:53.779Z,6.67
2023-02-19T19:39:56.176Z,6.61
2023-02-19T19:41:57.612Z,6.59
2023-02-19T19:44:02.467Z,6.63
2023-02-19T19:46:04.206Z,6.53
2023-02-19T19:48:06.165Z,6.48
2023-02-19T19:50:07.880Z,6.52
2023-02-19T19:52:09.408Z,6.52
2023-02-19T19:54:11.740Z,6.51
2023-02-19T19:56:13.392Z,6.52
2023-02-19T19:58:16.669Z,6.46
2023-02-19T20:00:18.627Z,6.49
2023-02-19T20:02:20.134Z,6.53
2023-02-19T20:04:23.206Z,6.49
2023-02-19T20:06:29.675Z,6.49
2023-02-19T20:08:31.084Z,6.44
2023-02-19T20:10:32.475Z,6.42
2023-02-19T20:12:33.895Z,6.34
2023-02-19T20:14:35.350Z,6.41
2023-02-19T20:16:37.311Z,6.46
2023-02-19T20:18:38.784Z,6.44
2023-02-19T20:20:40.154Z,6.39
2023-02-19T20:22:41.547Z,6.41
2023-02-19T20:24:42.973Z,6.43
2023-02-19T20:26:44.993Z,6.45
2023-02-19T20:28:46.670Z,6.36
2023-02-19T20:30:48.252Z,6.36
2023-02-19T20:32:49.898Z,6.38
2023-02-19T20:34:51.493Z,6.34
2023-02-19T20:36:52.860Z,6.30
2023-02-19T20:38:54.303Z,6.35
2023-02-19T20:40:56.435Z,6.31
2023-02-19T20:43:00.655Z,6.32
2023-02-19T20:45:02.101Z,6.33
2023-02-19T20:47:03.660Z,6.34
2023-02-19T20:49:05.050Z,6.31
2023-02-19T20:51:06.476Z,6.30
2023-02-19T20:53:07.979Z,6.24
2023-02-19T20:55:09.630Z,6.30
2023-02-19T20:57:11.536Z,6.29
2023-02-19T20:59:14.961Z,6.30
2023-02-19T21:01:16.321Z,6.27
2023-02-19T21:03:17.730Z,6.21
2023-02-19T21:05:19.870Z,6.27
2023-02-19T21:07:21.306Z,6.29
2023-02-19T21:09:23.350Z,6.26
2023-02-19T21:11:25.034Z,6.25
2023-02-19T21:13:26.402Z,6.24
2023-02-19T21:15:27.833Z,6.25
2023-02-19T21:17:29.174Z,6.22
2023-02-19T21:19:30.527Z,6.26
2023-02-19T21:21:34.319Z,6.17
2023-02-19T21:23:35.730Z,6.22
2023-02-19T21:25:37.066Z,6.25
2023-02-19T21:27:38.590Z,6.26
2023-02-19T21:29:39.952Z,6.26
2023-02-19T21:31:44.402Z,6.25
2023-02-19T21:33:46.459Z,6.27
2023-02-19T21:35:47.837Z,6.25
2023-02-19T21:37:49.220Z,6.27
2023-02-19T21:39:50.727Z,6.26
2023-02-19T21:41:52.108Z,6.18
2023-02-19T21:43:57.135Z,6.20
2023-02-19T21:45:58.595Z,6.20
2023-02-19T21:48:00.074Z,6.20
2023-02-19T21:50:01.507Z,6.20
2023-02-19T21:52:02.956Z,6.17
2023-02-19T21:54:05.494Z,6.19
2023-02-19T21:56:07.085Z,6.10
2023-02-19T21:58:09.951Z,6.14
2023-02-19T22:00:11.957Z,6.13
2023-02-19T22:02:13.509Z,6.10
2023-02-19T22:04:17.762Z,6.13
2023-02-19T22:06:21.338Z,6.08
2023-02-19T22:08:22.911Z,6.10
2023-02-19T22:10:24.280Z,6.10
2023-02-19T22:12:25.644Z,6.12
2023-02-19T22:14:27.062Z,6.11
2023-02-19T22:16:28.784Z,6.07
2023-02-19T22:18:30.237Z,6.12
2023-02-19T22:20:31.636Z,6.15
2023-02-19T22:22:33.115Z,6.13
2023-02-19T22:24:34.544Z,6.10
2023-02-19T22:26:35.968Z,6.06
2023-02-19T22:28:38.502Z,6.06
2023-02-19T22:30:41.300Z,6.07
2023-02-19T22:32:42.757Z,6.05
2023-02-19T22:34:44.145Z,5.99
2023-02-19T22:36:45.586Z,5.96
2023-02-19T22:38:47.503Z,5.98
2023-02-19T22:40:48.939Z,5.97
2023-02-19T22:42:50.546Z,5.97
2023-02-19T22:44:51.893Z,5.97
2023-02-19T22:46:55.957Z,5.97
2023-02-19T22:48:58.609Z,5.93
2023-02-19T22:51:00.136Z,5.91
2023-02-19T22:53:01.523Z,5.93
2023-02-19T22:55:03.719Z,5.89
2023-02-19T22:57:05.585Z,5.88
2023-02-19T22:59:06.989Z,5.91
2023-02-19T23:01:09.660Z,5.85
2023-02-19T23:03:11.136Z,5.80
2023-02-19T23:05:12.757Z,5.79
2023-02-19T23:07:14.217Z,5.73
2023-02-19T23:09:27.745Z,5.73
2023-02-19T23:11:31.693Z,5.63
2023-02-19T23:13:33.086Z,5.59
2023-02-19T23:15:34.860Z,5.53
2023-02-19T23:17:36.426Z,5.49
2023-02-19T23:19:37.948Z,5.45
2023-02-19T23:21:41.249Z,5.40
2023-02-19T23:23:43.787Z,5.29
2023-02-19T23:25:45.138Z,5.27
2023-02-19T23:27:46.497Z,5.23
2023-02-19T23:29:47.889Z,5.13
2023-02-19T23:31:49.606Z,5.14
2023-02-19T23:33:51.110Z,5.12
2023-02-19T23:35:52.602Z,5.05
2023-02-19T23:37:54.958Z,5.07
2023-02-19T23:39:56.410Z,5.02
2023-02-19T23:41:58.268Z,4.97
2023-02-19T23:43:59.633Z,4.93
2023-02-19T23:46:01.740Z,4.90
2023-02-19T23:48:03.340Z,4.87
2023-02-19T23:50:05.245Z,4.82
2023-02-19T23:52:06.761Z,4.81
2023-02-19T23:54:08.453Z,4.77
2023-02-19T23:56:10.146Z,4.78
2023-02-19T23:58:11.646Z,4.73
